Park, Kentucky
Current Conditions -  °F | °C
As of 2:15 PM on Monday 26 Jan 2015 (Local Time) from KGLW Reporting Station
Overcast Overcast  
Wind Chill: 26°   Ceiling: 1500
Heat Index: 32°   Visibility: 10mi
Dew Point: 26°   Wind: 6mph
Humidity: 80%   Direction: 270°W
Pressure: 29.93"   Gusts: NA
Location:  37.2021°N, 85.902°W
Report Text: KGLW 262015Z AUTO 27005KT 10SM OVC015 00/M03 A2993 RMK AO2 T00001031
Loading
Personal Weather Stations






























Interactive Weather Map New forecast layout! Learn more

10-Day Weather Forecast

Advertisements
Track Severe Weather on mobile